Pagina principale
METAR-TAF:

METAR-TAF

Aeroporti :

Lawrence Municipal Airport

Lawrence, Massachusetts, Stati Uniti

latitudine: 42-42-47N, longitudine: 071-07-33W, altezza: 45 m

Osservazione

Il bollettino è stato emesso 1 ora e 1 minuti fa, alle 06:54 UTC
Vento calmo
Temperature 13°C
Umidità 88%
Pressione 1017 hPa
Visibilità: 16.1 km
Poco nuvoloso ad un'altezza di 7000 ft

METAR: KLWM 240654Z AUTO 00000KT 10SM FEW070 13/11 A3003 RMK AO2 SLP168 T01280106

Ora: 03:55 (07:55 UTC)


TAF: mancante

Osservazioni e previsioni meteorologiche di più di 4000 aeroporti (messaggi METAR e TAF).

Le stazioni disponibili sono rappresentate dai dischi gialli e rossi sulla carta.

Puntare il mouse per vedere il nome della stazione.

Clicca sopra per visualizzare le osservazioni e previsioni meteorologiche.

Per cambiare la mappa : fare clic sui pulsanti verdi con una croce nera per ingrandire, il pulsante verde con un trattino per diminuire, o sulla freccia verde per le mappe adiacenti.


METAR-TAF: